sensor_id;sensor_type;location;lat;lon;timestamp;temperature;humidity
57088;DHT22;42965;52.846;6.614;2023-06-26T00:00:58;22.00;99.90
57088;DHT22;42965;52.846;6.614;2023-06-26T00:03:25;22.00;99.90
57088;DHT22;42965;52.846;6.614;2023-06-26T00:05:51;22.00;99.90
57088;DHT22;42965;52.846;6.614;2023-06-26T00:08:17;22.00;99.90
57088;DHT22;42965;52.846;6.614;2023-06-26T00:10:43;22.00;99.90
57088;DHT22;42965;52.846;6.614;2023-06-26T00:13:09;21.90;99.90
57088;DHT22;42965;52.846;6.614;2023-06-26T00:15:38;21.90;99.90
57088;DHT22;42965;52.846;6.614;2023-06-26T00:18:05;21.90;99.90
57088;DHT22;42965;52.846;6.614;2023-06-26T00:20:31;21.90;99.90
57088;DHT22;42965;52.846;6.614;2023-06-26T00:23:00;21.90;99.90
57088;DHT22;42965;52.846;6.614;2023-06-26T00:25:26;21.80;99.90
57088;DHT22;42965;52.846;6.614;2023-06-26T00:27:52;21.80;99.90
57088;DHT22;42965;52.846;6.614;2023-06-26T00:30:19;21.80;99.90
57088;DHT22;42965;52.846;6.614;2023-06-26T00:32:46;21.80;99.90
57088;DHT22;42965;52.846;6.614;2023-06-26T00:35:12;21.70;99.90
57088;DHT22;42965;52.846;6.614;2023-06-26T00:37:38;21.80;99.90
57088;DHT22;42965;52.846;6.614;2023-06-26T00:40:05;21.70;99.90
57088;DHT22;42965;52.846;6.614;2023-06-26T00:42:32;21.70;99.90
57088;DHT22;42965;52.846;6.614;2023-06-26T00:44:58;21.70;99.90
57088;DHT22;42965;52.846;6.614;2023-06-26T00:47:25;21.60;99.90
57088;DHT22;42965;52.846;6.614;2023-06-26T00:49:52;21.60;99.90
57088;DHT22;42965;52.846;6.614;2023-06-26T00:52:21;21.50;99.90
57088;DHT22;42965;52.846;6.614;2023-06-26T00:54:51;21.60;99.90
57088;DHT22;42965;52.846;6.614;2023-06-26T00:57:21;21.50;99.90
57088;DHT22;42965;52.846;6.614;2023-06-26T00:59:48;21.50;99.90
57088;DHT22;42965;52.846;6.614;2023-06-26T01:02:15;21.40;99.90
57088;DHT22;42965;52.846;6.614;2023-06-26T01:04:54;21.40;99.90
57088;DHT22;42965;52.846;6.614;2023-06-26T01:07:21;21.40;99.90
57088;DHT22;42965;52.846;6.614;2023-06-26T01:09:49;21.30;99.90
57088;DHT22;42965;52.846;6.614;2023-06-26T01:12:15;21.30;99.90
57088;DHT22;42965;52.846;6.614;2023-06-26T01:14:42;21.30;99.90
57088;DHT22;42965;52.846;6.614;2023-06-26T01:17:09;21.30;99.90
57088;DHT22;42965;52.846;6.614;2023-06-26T01:19:41;21.30;99.90
57088;DHT22;42965;52.846;6.614;2023-06-26T01:27:35;21.20;99.90
57088;DHT22;42965;52.846;6.614;2023-06-26T01:30:03;21.20;99.90
57088;DHT22;42965;52.846;6.614;2023-06-26T01:32:31;21.10;99.90
57088;DHT22;42965;52.846;6.614;2023-06-26T01:34:59;21.00;99.90
57088;DHT22;42965;52.846;6.614;2023-06-26T01:37:30;21.00;99.90
57088;DHT22;42965;52.846;6.614;2023-06-26T01:39:56;20.90;99.90
57088;DHT22;42965;52.846;6.614;2023-06-26T01:42:22;20.80;99.90
57088;DHT22;42965;52.846;6.614;2023-06-26T01:44:50;20.80;99.90
57088;DHT22;42965;52.846;6.614;2023-06-26T01:47:24;20.70;99.90
57088;DHT22;42965;52.846;6.614;2023-06-26T01:50:00;20.60;99.90
57088;DHT22;42965;52.846;6.614;2023-06-26T01:52:43;20.60;99.90
57088;DHT22;42965;52.846;6.614;2023-06-26T01:55:36;20.70;99.90
57088;DHT22;42965;52.846;6.614;2023-06-26T01:58:06;20.70;99.90
57088;DHT22;42965;52.846;6.614;2023-06-26T02:00:33;20.70;99.90
57088;DHT22;42965;52.846;6.614;2023-06-26T02:02:59;20.70;99.90
57088;DHT22;42965;52.846;6.614;2023-06-26T02:05:26;20.70;99.90
57088;DHT22;42965;52.846;6.614;2023-06-26T02:07:52;20.70;99.90
57088;DHT22;42965;52.846;6.614;2023-06-26T02:10:21;20.60;99.90
57088;DHT22;42965;52.846;6.614;2023-06-26T02:12:48;20.70;99.90
57088;DHT22;42965;52.846;6.614;2023-06-26T02:15:15;20.60;99.90
57088;DHT22;42965;52.846;6.614;2023-06-26T02:17:41;20.60;99.90
57088;DHT22;42965;52.846;6.614;2023-06-26T02:20:07;20.50;99.90
57088;DHT22;42965;52.846;6.614;2023-06-26T02:22:36;20.50;99.90
57088;DHT22;42965;52.846;6.614;2023-06-26T02:25:02;20.40;99.90
57088;DHT22;42965;52.846;6.614;2023-06-26T02:27:29;20.40;99.90
57088;DHT22;42965;52.846;6.614;2023-06-26T02:29:55;20.30;99.90
57088;DHT22;42965;52.846;6.614;2023-06-26T02:32:21;20.20;99.90
57088;DHT22;42965;52.846;6.614;2023-06-26T02:34:49;20.20;99.90
57088;DHT22;42965;52.846;6.614;2023-06-26T02:37:18;20.20;99.90
57088;DHT22;42965;52.846;6.614;2023-06-26T02:39:45;20.10;99.90
57088;DHT22;42965;52.846;6.614;2023-06-26T02:42:11;20.10;99.90
57088;DHT22;42965;52.846;6.614;2023-06-26T02:44:38;20.10;99.90
57088;DHT22;42965;52.846;6.614;2023-06-26T02:47:04;20.10;99.90
57088;DHT22;42965;52.846;6.614;2023-06-26T02:49:31;20.10;99.90
57088;DHT22;42965;52.846;6.614;2023-06-26T02:51:57;20.10;99.90
57088;DHT22;42965;52.846;6.614;2023-06-26T02:54:27;20.10;99.90
57088;DHT22;42965;52.846;6.614;2023-06-26T02:56:57;20.10;99.90
57088;DHT22;42965;52.846;6.614;2023-06-26T02:59:28;20.10;99.90
57088;DHT22;42965;52.846;6.614;2023-06-26T03:01:56;20.10;99.90
57088;DHT22;42965;52.846;6.614;2023-06-26T03:04:29;20.00;99.90
57088;DHT22;42965;52.846;6.614;2023-06-26T03:06:55;20.00;99.90
57088;DHT22;42965;52.846;6.614;2023-06-26T03:09:21;20.00;99.90
57088;DHT22;42965;52.846;6.614;2023-06-26T03:11:49;20.00;99.90
57088;DHT22;42965;52.846;6.614;2023-06-26T03:14:15;20.00;99.90
57088;DHT22;42965;52.846;6.614;2023-06-26T03:16:42;20.00;99.90
57088;DHT22;42965;52.846;6.614;2023-06-26T03:19:08;20.00;99.90
57088;DHT22;42965;52.846;6.614;2023-06-26T03:21:54;20.00;99.90
57088;DHT22;42965;52.846;6.614;2023-06-26T03:24:21;20.00;99.90
57088;DHT22;42965;52.846;6.614;2023-06-26T03:26:47;20.00;99.90
57088;DHT22;42965;52.846;6.614;2023-06-26T03:29:16;20.00;99.90
57088;DHT22;42965;52.846;6.614;2023-06-26T03:31:43;20.10;99.90
57088;DHT22;42965;52.846;6.614;2023-06-26T03:34:09;20.10;99.90
57088;DHT22;42965;52.846;6.614;2023-06-26T03:36:35;20.10;99.90
57088;DHT22;42965;52.846;6.614;2023-06-26T03:39:03;20.20;99.90
57088;DHT22;42965;52.846;6.614;2023-06-26T03:41:30;20.20;99.90
57088;DHT22;42965;52.846;6.614;2023-06-26T03:43:56;20.30;99.90
57088;DHT22;42965;52.846;6.614;2023-06-26T03:46:28;20.30;99.90
57088;DHT22;42965;52.846;6.614;2023-06-26T03:48:56;20.40;99.90
57088;DHT22;42965;52.846;6.614;2023-06-26T03:51:23;20.50;99.90
57088;DHT22;42965;52.846;6.614;2023-06-26T03:53:49;20.60;99.90
57088;DHT22;42965;52.846;6.614;2023-06-26T03:56:15;20.60;99.90
57088;DHT22;42965;52.846;6.614;2023-06-26T03:58:42;20.70;99.90
57088;DHT22;42965;52.846;6.614;2023-06-26T04:01:10;20.80;99.90
57088;DHT22;42965;52.846;6.614;2023-06-26T04:03:37;20.80;99.90
57088;DHT22;42965;52.846;6.614;2023-06-26T04:06:03;20.90;99.90
57088;DHT22;42965;52.846;6.614;2023-06-26T04:08:29;20.90;99.90
57088;DHT22;42965;52.846;6.614;2023-06-26T04:10:56;21.00;99.90
57088;DHT22;42965;52.846;6.614;2023-06-26T04:13:23;21.10;99.90
57088;DHT22;42965;52.846;6.614;2023-06-26T04:15:49;21.10;99.90
57088;DHT22;42965;52.846;6.614;2023-06-26T04:18:16;21.20;99.90
57088;DHT22;42965;52.846;6.614;2023-06-26T04:23:32;21.30;99.90
57088;DHT22;42965;52.846;6.614;2023-06-26T04:25:58;21.20;99.90
57088;DHT22;42965;52.846;6.614;2023-06-26T04:28:25;21.30;99.90
57088;DHT22;42965;52.846;6.614;2023-06-26T04:30:51;21.20;99.90
57088;DHT22;42965;52.846;6.614;2023-06-26T04:33:17;21.30;99.90
57088;DHT22;42965;52.846;6.614;2023-06-26T04:35:44;21.30;99.90
57088;DHT22;42965;52.846;6.614;2023-06-26T04:38:15;21.30;99.90
57088;DHT22;42965;52.846;6.614;2023-06-26T04:40:42;21.30;99.90
57088;DHT22;42965;52.846;6.614;2023-06-26T04:43:08;21.30;99.90
57088;DHT22;42965;52.846;6.614;2023-06-26T04:45:35;21.40;99.90
57088;DHT22;42965;52.846;6.614;2023-06-26T04:48:02;21.50;99.90
57088;DHT22;42965;52.846;6.614;2023-06-26T04:50:28;21.50;99.90
57088;DHT22;42965;52.846;6.614;2023-06-26T04:52:55;21.50;99.90
57088;DHT22;42965;52.846;6.614;2023-06-26T04:55:24;21.70;99.90
57088;DHT22;42965;52.846;6.614;2023-06-26T04:57:50;21.80;99.90
57088;DHT22;42965;52.846;6.614;2023-06-26T05:00:17;21.80;99.90
57088;DHT22;42965;52.846;6.614;2023-06-26T05:02:44;21.80;99.90
57088;DHT22;42965;52.846;6.614;2023-06-26T05:05:11;21.80;99.90
57088;DHT22;42965;52.846;6.614;2023-06-26T05:07:38;21.80;99.90
57088;DHT22;42965;52.846;6.614;2023-06-26T05:10:04;21.80;99.90
57088;DHT22;42965;52.846;6.614;2023-06-26T05:12:31;21.90;99.90
57088;DHT22;42965;52.846;6.614;2023-06-26T05:14:57;21.80;99.90
57088;DHT22;42965;52.846;6.614;2023-06-26T05:17:23;21.80;99.90
57088;DHT22;42965;52.846;6.614;2023-06-26T05:19:49;21.70;99.90
57088;DHT22;42965;52.846;6.614;2023-06-26T05:22:17;21.60;99.90
57088;DHT22;42965;52.846;6.614;2023-06-26T05:24:46;21.70;99.90
57088;DHT22;42965;52.846;6.614;2023-06-26T05:27:13;21.60;99.90
57088;DHT22;42965;52.846;6.614;2023-06-26T05:29:49;21.70;99.90
57088;DHT22;42965;52.846;6.614;2023-06-26T05:32:16;21.70;99.90
57088;DHT22;42965;52.846;6.614;2023-06-26T05:34:48;21.70;99.90
57088;DHT22;42965;52.846;6.614;2023-06-26T05:37:20;21.90;99.90
57088;DHT22;42965;52.846;6.614;2023-06-26T05:39:46;21.90;99.90
57088;DHT22;42965;52.846;6.614;2023-06-26T05:42:16;22.00;99.90
57088;DHT22;42965;52.846;6.614;2023-06-26T05:44:42;22.20;99.90
57088;DHT22;42965;52.846;6.614;2023-06-26T05:47:08;22.10;99.90
57088;DHT22;42965;52.846;6.614;2023-06-26T05:49:35;21.90;99.90
57088;DHT22;42965;52.846;6.614;2023-06-26T05:52:02;21.60;99.90
57088;DHT22;42965;52.846;6.614;2023-06-26T05:54:28;21.50;99.90
57088;DHT22;42965;52.846;6.614;2023-06-26T05:56:57;21.40;99.90
57088;DHT22;42965;52.846;6.614;2023-06-26T05:59:26;21.40;99.90
57088;DHT22;42965;52.846;6.614;2023-06-26T06:01:53;21.30;99.90
57088;DHT22;42965;52.846;6.614;2023-06-26T06:04:19;21.40;99.90
57088;DHT22;42965;52.846;6.614;2023-06-26T06:06:46;21.40;99.90
57088;DHT22;42965;52.846;6.614;2023-06-26T06:09:12;21.50;99.90
57088;DHT22;42965;52.846;6.614;2023-06-26T06:11:38;21.50;99.90
57088;DHT22;42965;52.846;6.614;2023-06-26T06:14:04;21.50;99.90
57088;DHT22;42965;52.846;6.614;2023-06-26T06:16:30;21.60;99.90
57088;DHT22;42965;52.846;6.614;2023-06-26T06:18:57;21.50;99.90
57088;DHT22;42965;52.846;6.614;2023-06-26T06:21:23;21.60;99.90
57088;DHT22;42965;52.846;6.614;2023-06-26T06:23:49;21.80;99.90
57088;DHT22;42965;52.846;6.614;2023-06-26T06:26:15;21.60;99.90
57088;DHT22;42965;52.846;6.614;2023-06-26T06:28:42;21.80;99.90
57088;DHT22;42965;52.846;6.614;2023-06-26T06:31:08;22.10;99.90
57088;DHT22;42965;52.846;6.614;2023-06-26T06:33:34;22.20;99.90
57088;DHT22;42965;52.846;6.614;2023-06-26T06:36:00;22.20;99.90
57088;DHT22;42965;52.846;6.614;2023-06-26T06:38:26;22.40;99.90
57088;DHT22;42965;52.846;6.614;2023-06-26T06:40:53;22.50;99.90
57088;DHT22;42965;52.846;6.614;2023-06-26T06:43:19;22.90;99.90
57088;DHT22;42965;52.846;6.614;2023-06-26T06:45:46;23.20;99.90
57088;DHT22;42965;52.846;6.614;2023-06-26T06:48:12;23.50;99.90
57088;DHT22;42965;52.846;6.614;2023-06-26T06:50:38;23.50;99.90
57088;DHT22;42965;52.846;6.614;2023-06-26T06:53:04;23.70;99.90
57088;DHT22;42965;52.846;6.614;2023-06-26T06:55:30;24.00;99.90
57088;DHT22;42965;52.846;6.614;2023-06-26T06:57:57;24.00;99.90
57088;DHT22;42965;52.846;6.614;2023-06-26T07:00:23;23.50;99.90
57088;DHT22;42965;52.846;6.614;2023-06-26T07:02:49;23.60;99.90
57088;DHT22;42965;52.846;6.614;2023-06-26T07:05:16;23.40;99.90
57088;DHT22;42965;52.846;6.614;2023-06-26T07:07:42;23.40;99.90
57088;DHT22;42965;52.846;6.614;2023-06-26T07:10:10;23.20;99.90
57088;DHT22;42965;52.846;6.614;2023-06-26T07:12:37;23.10;99.90
57088;DHT22;42965;52.846;6.614;2023-06-26T07:15:05;22.80;99.90
57088;DHT22;42965;52.846;6.614;2023-06-26T07:17:32;23.10;99.90
57088;DHT22;42965;52.846;6.614;2023-06-26T07:20:00;23.50;99.90
57088;DHT22;42965;52.846;6.614;2023-06-26T07:22:26;23.90;99.90
57088;DHT22;42965;52.846;6.614;2023-06-26T07:24:53;24.20;99.90
57088;DHT22;42965;52.846;6.614;2023-06-26T07:27:20;24.30;99.90
57088;DHT22;42965;52.846;6.614;2023-06-26T07:29:46;24.60;99.90
57088;DHT22;42965;52.846;6.614;2023-06-26T07:32:13;24.60;99.90
57088;DHT22;42965;52.846;6.614;2023-06-26T07:34:39;24.70;99.90
57088;DHT22;42965;52.846;6.614;2023-06-26T07:37:05;25.20;99.90
57088;DHT22;42965;52.846;6.614;2023-06-26T07:39:31;25.50;99.90
57088;DHT22;42965;52.846;6.614;2023-06-26T07:41:58;25.40;99.90
57088;DHT22;42965;52.846;6.614;2023-06-26T07:44:26;25.50;99.90
57088;DHT22;42965;52.846;6.614;2023-06-26T07:46:52;25.30;99.90
57088;DHT22;42965;52.846;6.614;2023-06-26T07:49:21;25.80;99.90
57088;DHT22;42965;52.846;6.614;2023-06-26T07:51:51;26.10;99.90
57088;DHT22;42965;52.846;6.614;2023-06-26T07:54:17;26.40;99.90
57088;DHT22;42965;52.846;6.614;2023-06-26T07:56:55;26.20;99.90
57088;DHT22;42965;52.846;6.614;2023-06-26T07:59:23;25.60;99.40
57088;DHT22;42965;52.846;6.614;2023-06-26T08:01:54;25.50;99.90
57088;DHT22;42965;52.846;6.614;2023-06-26T08:04:22;25.10;98.70
57088;DHT22;42965;52.846;6.614;2023-06-26T08:06:50;25.50;99.40
57088;DHT22;42965;52.846;6.614;2023-06-26T08:09:19;25.50;99.30
57088;DHT22;42965;52.846;6.614;2023-06-26T08:11:46;25.70;98.10
57088;DHT22;42965;52.846;6.614;2023-06-26T08:14:13;25.90;97.70
57088;DHT22;42965;52.846;6.614;2023-06-26T08:16:40;25.70;97.40
57088;DHT22;42965;52.846;6.614;2023-06-26T08:19:07;25.80;97.60
57088;DHT22;42965;52.846;6.614;2023-06-26T08:21:33;25.60;96.80
57088;DHT22;42965;52.846;6.614;2023-06-26T08:24:03;26.20;97.60
57088;DHT22;42965;52.846;6.614;2023-06-26T08:26:29;25.90;96.10
57088;DHT22;42965;52.846;6.614;2023-06-26T08:28:55;25.80;96.50
57088;DHT22;42965;52.846;6.614;2023-06-26T08:31:21;25.60;96.70
57088;DHT22;42965;52.846;6.614;2023-06-26T08:33:50;25.50;96.70
57088;DHT22;42965;52.846;6.614;2023-06-26T08:36:16;25.70;96.80
57088;DHT22;42965;52.846;6.614;2023-06-26T08:38:43;25.90;97.20
57088;DHT22;42965;52.846;6.614;2023-06-26T08:41:09;26.00;96.30
57088;DHT22;42965;52.846;6.614;2023-06-26T08:43:36;26.00;96.00
57088;DHT22;42965;52.846;6.614;2023-06-26T08:46:03;25.50;96.30
57088;DHT22;42965;52.846;6.614;2023-06-26T08:48:32;25.30;97.20
57088;DHT22;42965;52.846;6.614;2023-06-26T08:51:09;25.50;97.00
57088;DHT22;42965;52.846;6.614;2023-06-26T08:53:50;25.00;97.40
57088;DHT22;42965;52.846;6.614;2023-06-26T08:56:19;24.70;97.70
57088;DHT22;42965;52.846;6.614;2023-06-26T08:58:48;25.10;98.10
57088;DHT22;42965;52.846;6.614;2023-06-26T09:01:17;25.50;98.70
57088;DHT22;42965;52.846;6.614;2023-06-26T09:03:45;25.20;97.90
57088;DHT22;42965;52.846;6.614;2023-06-26T09:06:11;25.20;98.30
57088;DHT22;42965;52.846;6.614;2023-06-26T09:08:37;25.70;98.20
57088;DHT22;42965;52.846;6.614;2023-06-26T09:11:03;25.80;97.90
57088;DHT22;42965;52.846;6.614;2023-06-26T09:13:30;26.60;97.60
57088;DHT22;42965;52.846;6.614;2023-06-26T09:15:57;25.90;96.50
57088;DHT22;42965;52.846;6.614;2023-06-26T09:18:23;25.80;97.40
57088;DHT22;42965;52.846;6.614;2023-06-26T09:20:50;25.10;97.40
57088;DHT22;42965;52.846;6.614;2023-06-26T09:23:16;25.30;97.50
57088;DHT22;42965;52.846;6.614;2023-06-26T09:25:43;26.00;97.80
57088;DHT22;42965;52.846;6.614;2023-06-26T09:28:10;26.30;97.40
57088;DHT22;42965;52.846;6.614;2023-06-26T09:30:36;26.20;96.90
57088;DHT22;42965;52.846;6.614;2023-06-26T09:33:23;26.70;96.10
57088;DHT22;42965;52.846;6.614;2023-06-26T09:35:49;26.70;95.20
57088;DHT22;42965;52.846;6.614;2023-06-26T09:38:15;27.00;94.70
57088;DHT22;42965;52.846;6.614;2023-06-26T09:40:46;27.30;94.60
57088;DHT22;42965;52.846;6.614;2023-06-26T09:43:13;26.70;93.60
57088;DHT22;42965;52.846;6.614;2023-06-26T09:45:40;26.80;93.50
57088;DHT22;42965;52.846;6.614;2023-06-26T09:48:07;27.00;92.10
57088;DHT22;42965;52.846;6.614;2023-06-26T09:50:41;26.70;90.60
57088;DHT22;42965;52.846;6.614;2023-06-26T09:53:09;26.70;89.10
57088;DHT22;42965;52.846;6.614;2023-06-26T09:55:36;27.10;90.50
57088;DHT22;42965;52.846;6.614;2023-06-26T09:58:03;27.40;90.00
57088;DHT22;42965;52.846;6.614;2023-06-26T10:00:33;27.40;86.80
57088;DHT22;42965;52.846;6.614;2023-06-26T10:02:59;26.70;85.20
57088;DHT22;42965;52.846;6.614;2023-06-26T10:05:26;26.30;84.50
57088;DHT22;42965;52.846;6.614;2023-06-26T10:07:54;26.90;84.50
57088;DHT22;42965;52.846;6.614;2023-06-26T10:10:23;26.50;82.60
57088;DHT22;42965;52.846;6.614;2023-06-26T10:12:55;26.90;82.80
57088;DHT22;42965;52.846;6.614;2023-06-26T10:15:25;27.40;80.70
57088;DHT22;42965;52.846;6.614;2023-06-26T10:17:55;27.00;81.60
57088;DHT22;42965;52.846;6.614;2023-06-26T10:20:22;27.30;82.90
57088;DHT22;42965;52.846;6.614;2023-06-26T10:22:49;27.20;80.10
57088;DHT22;42965;52.846;6.614;2023-06-26T10:25:19;26.80;77.60
57088;DHT22;42965;52.846;6.614;2023-06-26T10:27:53;27.10;76.50
57088;DHT22;42965;52.846;6.614;2023-06-26T10:30:28;27.00;75.00
57088;DHT22;42965;52.846;6.614;2023-06-26T10:32:56;27.10;73.60
57088;DHT22;42965;52.846;6.614;2023-06-26T10:35:24;27.60;74.50
57088;DHT22;42965;52.846;6.614;2023-06-26T10:37:50;27.10;74.40
57088;DHT22;42965;52.846;6.614;2023-06-26T10:40:28;25.90;76.00
57088;DHT22;42965;52.846;6.614;2023-06-26T10:43:08;25.30;77.10
57088;DHT22;42965;52.846;6.614;2023-06-26T10:45:35;25.10;78.80
57088;DHT22;42965;52.846;6.614;2023-06-26T10:48:02;25.20;80.80
57088;DHT22;42965;52.846;6.614;2023-06-26T10:50:32;25.40;81.30
57088;DHT22;42965;52.846;6.614;2023-06-26T10:56:01;27.00;80.70
57088;DHT22;42965;52.846;6.614;2023-06-26T11:03:44;27.00;74.00
57088;DHT22;42965;52.846;6.614;2023-06-26T11:06:19;26.80;71.10
57088;DHT22;42965;52.846;6.614;2023-06-26T11:08:49;27.00;70.10
57088;DHT22;42965;52.846;6.614;2023-06-26T11:11:16;27.70;71.00
57088;DHT22;42965;52.846;6.614;2023-06-26T11:13:45;27.30;69.10
57088;DHT22;42965;52.846;6.614;2023-06-26T11:16:12;26.80;70.10
57088;DHT22;42965;52.846;6.614;2023-06-26T11:18:39;26.30;70.50
57088;DHT22;42965;52.846;6.614;2023-06-26T11:21:09;25.90;70.70
57088;DHT22;42965;52.846;6.614;2023-06-26T11:23:37;25.70;70.20
57088;DHT22;42965;52.846;6.614;2023-06-26T11:26:17;26.00;71.00
57088;DHT22;42965;52.846;6.614;2023-06-26T11:28:54;26.50;71.60
57088;DHT22;42965;52.846;6.614;2023-06-26T11:31:33;26.80;66.20
57088;DHT22;42965;52.846;6.614;2023-06-26T11:34:01;27.20;66.10
57088;DHT22;42965;52.846;6.614;2023-06-26T11:36:29;27.10;67.00
57088;DHT22;42965;52.846;6.614;2023-06-26T11:38:56;27.80;68.10
57088;DHT22;42965;52.846;6.614;2023-06-26T11:41:25;27.20;67.40
57088;DHT22;42965;52.846;6.614;2023-06-26T11:43:52;28.00;67.90
57088;DHT22;42965;52.846;6.614;2023-06-26T11:46:22;28.40;66.00
57088;DHT22;42965;52.846;6.614;2023-06-26T11:48:49;28.70;65.30
57088;DHT22;42965;52.846;6.614;2023-06-26T11:51:16;28.00;64.80
57088;DHT22;42965;52.846;6.614;2023-06-26T11:53:44;28.10;65.20
57088;DHT22;42965;52.846;6.614;2023-06-26T11:56:11;27.30;63.50
57088;DHT22;42965;52.846;6.614;2023-06-26T12:01:24;28.20;65.20
57088;DHT22;42965;52.846;6.614;2023-06-26T12:03:59;28.40;62.40
57088;DHT22;42965;52.846;6.614;2023-06-26T12:06:28;28.70;59.70
57088;DHT22;42965;52.846;6.614;2023-06-26T12:08:55;28.10;59.40
57088;DHT22;42965;52.846;6.614;2023-06-26T12:11:23;28.10;59.30
57088;DHT22;42965;52.846;6.614;2023-06-26T12:13:51;28.10;60.00
57088;DHT22;42965;52.846;6.614;2023-06-26T12:16:17;27.80;60.80
57088;DHT22;42965;52.846;6.614;2023-06-26T12:18:47;27.40;62.20
57088;DHT22;42965;52.846;6.614;2023-06-26T12:24:04;27.20;64.00
57088;DHT22;42965;52.846;6.614;2023-06-26T12:26:31;26.90;63.80
57088;DHT22;42965;52.846;6.614;2023-06-26T12:29:09;26.50;66.00
57088;DHT22;42965;52.846;6.614;2023-06-26T12:31:43;27.00;66.20
57088;DHT22;42965;52.846;6.614;2023-06-26T12:34:11;26.70;66.00
57088;DHT22;42965;52.846;6.614;2023-06-26T12:36:40;27.00;65.90
57088;DHT22;42965;52.846;6.614;2023-06-26T12:39:09;27.30;65.40
57088;DHT22;42965;52.846;6.614;2023-06-26T12:42:05;27.40;64.60
57088;DHT22;42965;52.846;6.614;2023-06-26T12:44:30;26.80;63.80
57088;DHT22;42965;52.846;6.614;2023-06-26T12:47:00;26.20;63.50
57088;DHT22;42965;52.846;6.614;2023-06-26T12:49:45;26.00;64.50
57088;DHT22;42965;52.846;6.614;2023-06-26T12:52:14;26.50;65.70
57088;DHT22;42965;52.846;6.614;2023-06-26T12:54:42;27.00;63.70
57088;DHT22;42965;52.846;6.614;2023-06-26T12:57:09;26.90;63.10
57088;DHT22;42965;52.846;6.614;2023-06-26T12:59:37;27.00;63.30
57088;DHT22;42965;52.846;6.614;2023-06-26T13:02:04;27.10;61.10
57088;DHT22;42965;52.846;6.614;2023-06-26T13:04:30;27.30;60.40
57088;DHT22;42965;52.846;6.614;2023-06-26T13:06:57;27.40;61.00
57088;DHT22;42965;52.846;6.614;2023-06-26T13:09:23;26.90;61.10
57088;DHT22;42965;52.846;6.614;2023-06-26T13:11:54;26.80;60.50
57088;DHT22;42965;52.846;6.614;2023-06-26T13:14:21;26.60;60.00
57088;DHT22;42965;52.846;6.614;2023-06-26T13:16:47;26.70;60.30
57088;DHT22;42965;52.846;6.614;2023-06-26T13:19:13;26.80;61.20
57088;DHT22;42965;52.846;6.614;2023-06-26T13:21:39;27.00;60.40
57088;DHT22;42965;52.846;6.614;2023-06-26T13:24:05;27.00;56.80
57088;DHT22;42965;52.846;6.614;2023-06-26T13:26:32;27.20;56.30
57088;DHT22;42965;52.846;6.614;2023-06-26T13:28:59;27.10;56.40
57088;DHT22;42965;52.846;6.614;2023-06-26T13:31:25;27.60;56.00
57088;DHT22;42965;52.846;6.614;2023-06-26T13:33:51;27.60;56.60
57088;DHT22;42965;52.846;6.614;2023-06-26T13:36:20;27.70;57.50
57088;DHT22;42965;52.846;6.614;2023-06-26T13:38:47;27.40;57.40
57088;DHT22;42965;52.846;6.614;2023-06-26T13:41:16;27.50;58.10
57088;DHT22;42965;52.846;6.614;2023-06-26T13:43:42;27.20;59.00
57088;DHT22;42965;52.846;6.614;2023-06-26T13:46:08;27.50;59.50
57088;DHT22;42965;52.846;6.614;2023-06-26T13:48:34;27.30;58.90
57088;DHT22;42965;52.846;6.614;2023-06-26T13:51:00;27.40;59.40
57088;DHT22;42965;52.846;6.614;2023-06-26T13:53:28;27.70;59.20
57088;DHT22;42965;52.846;6.614;2023-06-26T13:55:54;27.40;59.50
57088;DHT22;42965;52.846;6.614;2023-06-26T13:58:20;27.10;59.80
57088;DHT22;42965;52.846;6.614;2023-06-26T14:00:50;26.10;59.90
57088;DHT22;42965;52.846;6.614;2023-06-26T14:03:16;25.90;61.60
57088;DHT22;42965;52.846;6.614;2023-06-26T14:05:44;25.70;61.50
57088;DHT22;42965;52.846;6.614;2023-06-26T14:08:10;25.90;60.60
57088;DHT22;42965;52.846;6.614;2023-06-26T14:10:37;25.40;61.50
57088;DHT22;42965;52.846;6.614;2023-06-26T14:13:04;25.10;62.30
57088;DHT22;42965;52.846;6.614;2023-06-26T14:15:30;25.10;62.40
57088;DHT22;42965;52.846;6.614;2023-06-26T14:17:56;25.10;63.80
57088;DHT22;42965;52.846;6.614;2023-06-26T14:20:23;25.60;63.40
57088;DHT22;42965;52.846;6.614;2023-06-26T14:22:49;25.80;62.10
57088;DHT22;42965;52.846;6.614;2023-06-26T14:25:16;26.10;62.50
57088;DHT22;42965;52.846;6.614;2023-06-26T14:27:42;25.90;62.10
57088;DHT22;42965;52.846;6.614;2023-06-26T14:30:09;25.40;62.60
57088;DHT22;42965;52.846;6.614;2023-06-26T14:32:35;25.30;62.00
57088;DHT22;42965;52.846;6.614;2023-06-26T14:35:03;25.40;62.60
57088;DHT22;42965;52.846;6.614;2023-06-26T14:37:31;26.40;61.40
57088;DHT22;42965;52.846;6.614;2023-06-26T14:39:58;27.20;60.20
57088;DHT22;42965;52.846;6.614;2023-06-26T14:42:25;27.90;58.50
57088;DHT22;42965;52.846;6.614;2023-06-26T14:44:51;27.80;56.70
57088;DHT22;42965;52.846;6.614;2023-06-26T14:47:17;27.00;55.00
57088;DHT22;42965;52.846;6.614;2023-06-26T14:49:44;26.70;56.00
57088;DHT22;42965;52.846;6.614;2023-06-26T14:52:10;26.00;57.20
57088;DHT22;42965;52.846;6.614;2023-06-26T14:54:38;26.10;58.50
57088;DHT22;42965;52.846;6.614;2023-06-26T14:57:08;25.70;59.70
57088;DHT22;42965;52.846;6.614;2023-06-26T14:59:35;25.30;60.80
57088;DHT22;42965;52.846;6.614;2023-06-26T15:02:01;24.60;63.00
57088;DHT22;42965;52.846;6.614;2023-06-26T15:04:28;24.40;63.40
57088;DHT22;42965;52.846;6.614;2023-06-26T15:06:57;24.10;64.40
57088;DHT22;42965;52.846;6.614;2023-06-26T15:09:23;24.30;65.30
57088;DHT22;42965;52.846;6.614;2023-06-26T15:11:50;24.50;64.70
57088;DHT22;42965;52.846;6.614;2023-06-26T15:14:16;24.70;63.70
57088;DHT22;42965;52.846;6.614;2023-06-26T15:16:42;24.90;62.60
57088;DHT22;42965;52.846;6.614;2023-06-26T15:19:08;25.10;63.10
57088;DHT22;42965;52.846;6.614;2023-06-26T15:21:35;24.80;62.00
57088;DHT22;42965;52.846;6.614;2023-06-26T15:24:01;24.80;62.10
57088;DHT22;42965;52.846;6.614;2023-06-26T15:26:27;24.80;61.80
57088;DHT22;42965;52.846;6.614;2023-06-26T15:28:53;24.50;61.50
57088;DHT22;42965;52.846;6.614;2023-06-26T15:31:20;24.50;61.80
57088;DHT22;42965;52.846;6.614;2023-06-26T15:33:46;24.60;62.10
57088;DHT22;42965;52.846;6.614;2023-06-26T15:36:12;24.40;63.00
57088;DHT22;42965;52.846;6.614;2023-06-26T15:38:39;24.50;63.60
57088;DHT22;42965;52.846;6.614;2023-06-26T15:41:05;24.70;63.30
57088;DHT22;42965;52.846;6.614;2023-06-26T15:43:32;24.80;63.10
57088;DHT22;42965;52.846;6.614;2023-06-26T15:45:59;24.40;63.30
57088;DHT22;42965;52.846;6.614;2023-06-26T15:48:25;24.30;64.50
57088;DHT22;42965;52.846;6.614;2023-06-26T15:50:53;24.20;65.20
57088;DHT22;42965;52.846;6.614;2023-06-26T15:53:19;23.90;65.50
57088;DHT22;42965;52.846;6.614;2023-06-26T15:55:57;24.10;65.80